sensor_id;sensor_type;location;lat;lon;timestamp;temperature;humidity
14359;DHT22;7263;49.418;11.064;2023-11-18T00:00:54;4.40;99.90
14359;DHT22;7263;49.418;11.064;2023-11-18T00:03:27;4.40;99.90
14359;DHT22;7263;49.418;11.064;2023-11-18T00:05:56;4.40;99.90
14359;DHT22;7263;49.418;11.064;2023-11-18T00:08:25;4.40;99.90
14359;DHT22;7263;49.418;11.064;2023-11-18T00:10:54;4.40;99.90
14359;DHT22;7263;49.418;11.064;2023-11-18T00:13:24;4.40;99.90
14359;DHT22;7263;49.418;11.064;2023-11-18T00:16:12;4.40;99.90
14359;DHT22;7263;49.418;11.064;2023-11-18T00:18:47;4.40;99.90
14359;DHT22;7263;49.418;11.064;2023-11-18T00:21:14;4.40;99.90
14359;DHT22;7263;49.418;11.064;2023-11-18T00:23:44;4.40;99.90
14359;DHT22;7263;49.418;11.064;2023-11-18T00:26:18;4.40;99.90
14359;DHT22;7263;49.418;11.064;2023-11-18T00:28:45;4.40;99.90
14359;DHT22;7263;49.418;11.064;2023-11-18T00:31:20;4.50;99.90
14359;DHT22;7263;49.418;11.064;2023-11-18T00:33:53;4.40;99.90
14359;DHT22;7263;49.418;11.064;2023-11-18T00:36:23;4.40;99.90
14359;DHT22;7263;49.418;11.064;2023-11-18T00:38:55;4.40;99.90
14359;DHT22;7263;49.418;11.064;2023-11-18T00:41:27;4.40;99.90
14359;DHT22;7263;49.418;11.064;2023-11-18T00:43:57;4.40;99.90
14359;DHT22;7263;49.418;11.064;2023-11-18T00:46:25;4.40;99.90
14359;DHT22;7263;49.418;11.064;2023-11-18T00:48:59;4.50;99.90
14359;DHT22;7263;49.418;11.064;2023-11-18T00:51:35;4.50;99.90
14359;DHT22;7263;49.418;11.064;2023-11-18T00:54:02;4.50;99.90
14359;DHT22;7263;49.418;11.064;2023-11-18T00:56:31;4.40;99.90
14359;DHT22;7263;49.418;11.064;2023-11-18T00:59:01;4.40;99.90
14359;DHT22;7263;49.418;11.064;2023-11-18T01:01:33;4.40;99.90
14359;DHT22;7263;49.418;11.064;2023-11-18T01:04:02;4.30;99.90
14359;DHT22;7263;49.418;11.064;2023-11-18T01:06:31;4.40;99.90
14359;DHT22;7263;49.418;11.064;2023-11-18T01:09:04;4.30;99.90
14359;DHT22;7263;49.418;11.064;2023-11-18T01:11:39;4.40;99.90
14359;DHT22;7263;49.418;11.064;2023-11-18T01:14:09;4.30;99.90
14359;DHT22;7263;49.418;11.064;2023-11-18T01:16:40;4.30;99.90
14359;DHT22;7263;49.418;11.064;2023-11-18T01:19:07;4.30;99.90
14359;DHT22;7263;49.418;11.064;2023-11-18T01:21:36;4.30;99.90
14359;DHT22;7263;49.418;11.064;2023-11-18T01:24:06;4.20;99.90
14359;DHT22;7263;49.418;11.064;2023-11-18T01:26:34;4.30;99.90
14359;DHT22;7263;49.418;11.064;2023-11-18T01:29:06;4.30;99.90
14359;DHT22;7263;49.418;11.064;2023-11-18T01:31:33;4.20;99.90
14359;DHT22;7263;49.418;11.064;2023-11-18T01:34:03;4.10;99.90
14359;DHT22;7263;49.418;11.064;2023-11-18T01:36:30;4.00;99.90
14359;DHT22;7263;49.418;11.064;2023-11-18T01:39:00;3.90;99.90
14359;DHT22;7263;49.418;11.064;2023-11-18T01:41:41;3.80;99.90
14359;DHT22;7263;49.418;11.064;2023-11-18T01:44:08;3.70;99.90
14359;DHT22;7263;49.418;11.064;2023-11-18T01:46:48;3.60;99.90
14359;DHT22;7263;49.418;11.064;2023-11-18T01:49:26;3.50;99.90
14359;DHT22;7263;49.418;11.064;2023-11-18T01:51:56;3.50;99.90
14359;DHT22;7263;49.418;11.064;2023-11-18T01:54:30;3.40;99.90
14359;DHT22;7263;49.418;11.064;2023-11-18T01:57:06;3.40;99.90
14359;DHT22;7263;49.418;11.064;2023-11-18T01:59:35;3.40;99.90
14359;DHT22;7263;49.418;11.064;2023-11-18T02:02:06;3.40;99.90
14359;DHT22;7263;49.418;11.064;2023-11-18T02:04:34;3.30;99.90
14359;DHT22;7263;49.418;11.064;2023-11-18T02:07:08;3.30;99.90
14359;DHT22;7263;49.418;11.064;2023-11-18T02:09:38;3.20;99.90
14359;DHT22;7263;49.418;11.064;2023-11-18T02:12:19;3.20;99.90
14359;DHT22;7263;49.418;11.064;2023-11-18T02:14:52;3.10;99.90
14359;DHT22;7263;49.418;11.064;2023-11-18T02:17:25;3.00;99.90
14359;DHT22;7263;49.418;11.064;2023-11-18T02:19:55;3.00;99.90
14359;DHT22;7263;49.418;11.064;2023-11-18T02:22:24;3.00;99.90
14359;DHT22;7263;49.418;11.064;2023-11-18T02:24:50;3.00;99.90
14359;DHT22;7263;49.418;11.064;2023-11-18T02:27:22;2.90;99.90
14359;DHT22;7263;49.418;11.064;2023-11-18T02:29:51;2.90;99.90
14359;DHT22;7263;49.418;11.064;2023-11-18T02:32:27;2.80;99.90
14359;DHT22;7263;49.418;11.064;2023-11-18T02:35:02;2.80;99.90
14359;DHT22;7263;49.418;11.064;2023-11-18T02:37:40;2.80;99.90
14359;DHT22;7263;49.418;11.064;2023-11-18T02:40:11;2.80;99.90
14359;DHT22;7263;49.418;11.064;2023-11-18T02:42:45;2.80;99.90
14359;DHT22;7263;49.418;11.064;2023-11-18T02:45:13;2.70;99.90
14359;DHT22;7263;49.418;11.064;2023-11-18T02:47:45;2.70;99.90
14359;DHT22;7263;49.418;11.064;2023-11-18T02:50:15;2.70;99.90
14359;DHT22;7263;49.418;11.064;2023-11-18T02:52:47;2.60;99.90
14359;DHT22;7263;49.418;11.064;2023-11-18T02:55:20;2.60;99.90
14359;DHT22;7263;49.418;11.064;2023-11-18T02:57:52;2.60;99.90
14359;DHT22;7263;49.418;11.064;2023-11-18T03:00:21;2.60;99.90
14359;DHT22;7263;49.418;11.064;2023-11-18T03:02:48;2.60;99.90
14359;DHT22;7263;49.418;11.064;2023-11-18T03:05:17;2.70;99.90
14359;DHT22;7263;49.418;11.064;2023-11-18T03:07:58;2.60;99.90
14359;DHT22;7263;49.418;11.064;2023-11-18T03:10:30;2.60;99.90
14359;DHT22;7263;49.418;11.064;2023-11-18T03:13:01;2.60;99.90
14359;DHT22;7263;49.418;11.064;2023-11-18T03:15:30;2.50;99.90
14359;DHT22;7263;49.418;11.064;2023-11-18T03:18:00;2.70;99.90
14359;DHT22;7263;49.418;11.064;2023-11-18T03:20:27;2.30;99.90
14359;DHT22;7263;49.418;11.064;2023-11-18T03:22:54;2.30;99.90
14359;DHT22;7263;49.418;11.064;2023-11-18T03:25:27;2.20;99.90
14359;DHT22;7263;49.418;11.064;2023-11-18T03:27:56;2.10;99.90
14359;DHT22;7263;49.418;11.064;2023-11-18T03:30:27;2.10;99.90
14359;DHT22;7263;49.418;11.064;2023-11-18T03:32:54;2.00;99.90
14359;DHT22;7263;49.418;11.064;2023-11-18T03:35:21;2.10;99.90
14359;DHT22;7263;49.418;11.064;2023-11-18T03:37:49;2.10;99.90
14359;DHT22;7263;49.418;11.064;2023-11-18T03:40:17;2.10;99.90
14359;DHT22;7263;49.418;11.064;2023-11-18T03:42:44;2.20;99.90
14359;DHT22;7263;49.418;11.064;2023-11-18T03:45:14;2.20;99.90
14359;DHT22;7263;49.418;11.064;2023-11-18T03:47:47;2.10;99.90
14359;DHT22;7263;49.418;11.064;2023-11-18T03:50:18;2.10;99.90
14359;DHT22;7263;49.418;11.064;2023-11-18T03:52:45;2.00;99.90
14359;DHT22;7263;49.418;11.064;2023-11-18T03:55:12;1.90;99.90
14359;DHT22;7263;49.418;11.064;2023-11-18T03:57:39;1.90;99.90
14359;DHT22;7263;49.418;11.064;2023-11-18T04:00:09;1.90;99.90
14359;DHT22;7263;49.418;11.064;2023-11-18T04:02:37;1.90;99.90
14359;DHT22;7263;49.418;11.064;2023-11-18T04:05:07;1.90;99.90
14359;DHT22;7263;49.418;11.064;2023-11-18T04:07:41;1.90;99.90
14359;DHT22;7263;49.418;11.064;2023-11-18T04:10:08;1.90;99.90
14359;DHT22;7263;49.418;11.064;2023-11-18T04:12:36;2.00;99.90
14359;DHT22;7263;49.418;11.064;2023-11-18T04:15:03;2.00;99.90
14359;DHT22;7263;49.418;11.064;2023-11-18T04:17:39;2.00;99.90
14359;DHT22;7263;49.418;11.064;2023-11-18T04:20:10;2.00;99.90
14359;DHT22;7263;49.418;11.064;2023-11-18T04:22:46;2.00;99.90
14359;DHT22;7263;49.418;11.064;2023-11-18T04:25:15;2.00;99.90
14359;DHT22;7263;49.418;11.064;2023-11-18T04:27:53;1.90;99.90
14359;DHT22;7263;49.418;11.064;2023-11-18T04:30:20;2.00;99.90
14359;DHT22;7263;49.418;11.064;2023-11-18T04:32:50;2.00;99.90
14359;DHT22;7263;49.418;11.064;2023-11-18T04:35:19;2.00;99.90
14359;DHT22;7263;49.418;11.064;2023-11-18T04:37:47;2.10;99.90
14359;DHT22;7263;49.418;11.064;2023-11-18T04:40:16;2.10;99.90
14359;DHT22;7263;49.418;11.064;2023-11-18T04:42:57;2.10;99.90
14359;DHT22;7263;49.418;11.064;2023-11-18T04:45:26;2.10;99.90
14359;DHT22;7263;49.418;11.064;2023-11-18T04:47:55;2.10;99.90
14359;DHT22;7263;49.418;11.064;2023-11-18T04:50:29;2.20;99.90
14359;DHT22;7263;49.418;11.064;2023-11-18T04:52:56;2.20;99.90
14359;DHT22;7263;49.418;11.064;2023-11-18T04:55:23;2.30;99.90
14359;DHT22;7263;49.418;11.064;2023-11-18T04:57:53;2.30;99.90
14359;DHT22;7263;49.418;11.064;2023-11-18T05:00:36;2.30;99.90
14359;DHT22;7263;49.418;11.064;2023-11-18T05:03:07;2.30;99.90
14359;DHT22;7263;49.418;11.064;2023-11-18T05:05:36;2.30;99.90
14359;DHT22;7263;49.418;11.064;2023-11-18T05:08:18;2.30;99.90
14359;DHT22;7263;49.418;11.064;2023-11-18T05:10:49;2.20;99.90
14359;DHT22;7263;49.418;11.064;2023-11-18T05:13:17;2.20;99.90
14359;DHT22;7263;49.418;11.064;2023-11-18T05:15:45;2.20;99.90
14359;DHT22;7263;49.418;11.064;2023-11-18T05:18:12;2.20;99.90
14359;DHT22;7263;49.418;11.064;2023-11-18T05:20:51;2.10;99.90
14359;DHT22;7263;49.418;11.064;2023-11-18T05:23:23;2.00;99.90
14359;DHT22;7263;49.418;11.064;2023-11-18T05:25:55;2.00;99.90
14359;DHT22;7263;49.418;11.064;2023-11-18T05:28:22;1.90;99.90
14359;DHT22;7263;49.418;11.064;2023-11-18T05:30:50;1.90;99.90
14359;DHT22;7263;49.418;11.064;2023-11-18T05:33:32;1.80;99.90
14359;DHT22;7263;49.418;11.064;2023-11-18T05:36:08;1.80;99.90
14359;DHT22;7263;49.418;11.064;2023-11-18T05:38:38;1.70;99.90
14359;DHT22;7263;49.418;11.064;2023-11-18T05:41:05;1.70;99.90
14359;DHT22;7263;49.418;11.064;2023-11-18T05:43:42;1.80;99.90
14359;DHT22;7263;49.418;11.064;2023-11-18T05:46:17;1.80;99.90
14359;DHT22;7263;49.418;11.064;2023-11-18T05:48:54;1.80;99.90
14359;DHT22;7263;49.418;11.064;2023-11-18T05:51:25;1.80;99.90
14359;DHT22;7263;49.418;11.064;2023-11-18T05:53:54;1.80;99.90
14359;DHT22;7263;49.418;11.064;2023-11-18T05:56:21;1.80;99.90
14359;DHT22;7263;49.418;11.064;2023-11-18T05:58:48;1.90;99.90
14359;DHT22;7263;49.418;11.064;2023-11-18T06:01:32;1.80;99.90
14359;DHT22;7263;49.418;11.064;2023-11-18T06:03:58;1.80;99.90
14359;DHT22;7263;49.418;11.064;2023-11-18T06:06:35;1.80;99.90
14359;DHT22;7263;49.418;11.064;2023-11-18T06:09:03;1.80;99.90
14359;DHT22;7263;49.418;11.064;2023-11-18T06:11:48;1.90;99.90
14359;DHT22;7263;49.418;11.064;2023-11-18T06:14:22;1.90;99.90
14359;DHT22;7263;49.418;11.064;2023-11-18T06:16:48;1.90;99.90
14359;DHT22;7263;49.418;11.064;2023-11-18T06:19:20;1.90;99.90
14359;DHT22;7263;49.418;11.064;2023-11-18T06:21:59;1.90;99.90
14359;DHT22;7263;49.418;11.064;2023-11-18T06:24:26;2.00;99.90
14359;DHT22;7263;49.418;11.064;2023-11-18T06:27:03;2.00;99.90
14359;DHT22;7263;49.418;11.064;2023-11-18T06:29:37;2.00;99.90
14359;DHT22;7263;49.418;11.064;2023-11-18T06:32:06;2.00;99.90
14359;DHT22;7263;49.418;11.064;2023-11-18T06:34:33;2.00;99.90
14359;DHT22;7263;49.418;11.064;2023-11-18T06:37:32;2.00;99.90
14359;DHT22;7263;49.418;11.064;2023-11-18T06:39:58;2.00;99.90
14359;DHT22;7263;49.418;11.064;2023-11-18T06:42:32;1.90;99.90
14359;DHT22;7263;49.418;11.064;2023-11-18T06:44:59;2.00;99.90
14359;DHT22;7263;49.418;11.064;2023-11-18T06:47:31;2.00;99.90
14359;DHT22;7263;49.418;11.064;2023-11-18T06:49:59;2.00;99.90
14359;DHT22;7263;49.418;11.064;2023-11-18T06:52:36;2.00;99.90
14359;DHT22;7263;49.418;11.064;2023-11-18T06:55:03;2.00;99.90
14359;DHT22;7263;49.418;11.064;2023-11-18T06:57:30;2.00;99.90
14359;DHT22;7263;49.418;11.064;2023-11-18T06:59:57;1.90;99.90
14359;DHT22;7263;49.418;11.064;2023-11-18T07:02:24;2.00;99.90
14359;DHT22;7263;49.418;11.064;2023-11-18T07:04:51;1.90;99.90
14359;DHT22;7263;49.418;11.064;2023-11-18T07:07:25;2.00;99.90
14359;DHT22;7263;49.418;11.064;2023-11-18T07:09:56;2.00;99.90
14359;DHT22;7263;49.418;11.064;2023-11-18T07:12:32;2.10;99.90
14359;DHT22;7263;49.418;11.064;2023-11-18T07:15:03;2.10;99.90
14359;DHT22;7263;49.418;11.064;2023-11-18T07:17:32;2.10;99.90
14359;DHT22;7263;49.418;11.064;2023-11-18T07:20:04;2.10;99.90
14359;DHT22;7263;49.418;11.064;2023-11-18T07:22:38;2.10;99.90
14359;DHT22;7263;49.418;11.064;2023-11-18T07:25:07;2.20;99.90
14359;DHT22;7263;49.418;11.064;2023-11-18T07:27:35;2.20;99.90
14359;DHT22;7263;49.418;11.064;2023-11-18T07:30:03;2.40;99.90
14359;DHT22;7263;49.418;11.064;2023-11-18T07:32:32;2.40;99.90
14359;DHT22;7263;49.418;11.064;2023-11-18T07:35:05;2.40;99.90
14359;DHT22;7263;49.418;11.064;2023-11-18T07:37:40;2.50;99.90
14359;DHT22;7263;49.418;11.064;2023-11-18T07:40:10;2.50;99.90
14359;DHT22;7263;49.418;11.064;2023-11-18T07:42:39;2.50;99.90
14359;DHT22;7263;49.418;11.064;2023-11-18T07:45:08;2.70;99.90
14359;DHT22;7263;49.418;11.064;2023-11-18T07:47:45;2.80;99.90
14359;DHT22;7263;49.418;11.064;2023-11-18T07:50:22;2.90;99.90
14359;DHT22;7263;49.418;11.064;2023-11-18T07:52:49;3.10;99.90
14359;DHT22;7263;49.418;11.064;2023-11-18T07:55:20;3.20;99.90
14359;DHT22;7263;49.418;11.064;2023-11-18T07:57:52;3.40;99.90
14359;DHT22;7263;49.418;11.064;2023-11-18T08:00:19;3.70;99.90
14359;DHT22;7263;49.418;11.064;2023-11-18T08:02:56;4.00;99.90
14359;DHT22;7263;49.418;11.064;2023-11-18T08:05:31;4.20;99.90
14359;DHT22;7263;49.418;11.064;2023-11-18T08:08:03;4.20;99.90
14359;DHT22;7263;49.418;11.064;2023-11-18T08:10:31;4.30;99.90
14359;DHT22;7263;49.418;11.064;2023-11-18T08:13:06;4.30;99.90
14359;DHT22;7263;49.418;11.064;2023-11-18T08:15:34;4.50;99.90
14359;DHT22;7263;49.418;11.064;2023-11-18T08:18:04;4.70;99.90
14359;DHT22;7263;49.418;11.064;2023-11-18T08:20:37;4.70;99.90
14359;DHT22;7263;49.418;11.064;2023-11-18T08:23:04;4.80;99.90
14359;DHT22;7263;49.418;11.064;2023-11-18T08:25:32;4.70;99.90
14359;DHT22;7263;49.418;11.064;2023-11-18T08:28:01;4.60;99.90
14359;DHT22;7263;49.418;11.064;2023-11-18T08:30:37;4.50;99.90
14359;DHT22;7263;49.418;11.064;2023-11-18T08:33:07;4.50;99.90
14359;DHT22;7263;49.418;11.064;2023-11-18T08:35:37;4.50;99.90
14359;DHT22;7263;49.418;11.064;2023-11-18T08:38:08;4.60;99.90
14359;DHT22;7263;49.418;11.064;2023-11-18T08:40:43;4.60;99.90
14359;DHT22;7263;49.418;11.064;2023-11-18T08:43:11;4.70;99.90
14359;DHT22;7263;49.418;11.064;2023-11-18T08:45:45;4.70;99.90
14359;DHT22;7263;49.418;11.064;2023-11-18T08:48:13;4.70;99.90
14359;DHT22;7263;49.418;11.064;2023-11-18T08:50:44;4.60;99.90
14359;DHT22;7263;49.418;11.064;2023-11-18T08:53:12;4.70;99.90
14359;DHT22;7263;49.418;11.064;2023-11-18T08:55:47;4.70;99.90
14359;DHT22;7263;49.418;11.064;2023-11-18T08:58:19;4.70;99.90
14359;DHT22;7263;49.418;11.064;2023-11-18T09:00:49;4.80;99.90
14359;DHT22;7263;49.418;11.064;2023-11-18T09:03:23;4.90;99.90
14359;DHT22;7263;49.418;11.064;2023-11-18T09:06:05;4.80;99.90
14359;DHT22;7263;49.418;11.064;2023-11-18T09:08:46;4.90;99.90
14359;DHT22;7263;49.418;11.064;2023-11-18T09:11:33;5.00;99.90
14359;DHT22;7263;49.418;11.064;2023-11-18T09:14:13;5.10;99.90
14359;DHT22;7263;49.418;11.064;2023-11-18T09:16:47;5.10;99.90
14359;DHT22;7263;49.418;11.064;2023-11-18T09:19:22;5.10;99.90
14359;DHT22;7263;49.418;11.064;2023-11-18T09:21:49;5.20;99.90
14359;DHT22;7263;49.418;11.064;2023-11-18T09:24:17;3.80;99.90
14359;DHT22;7263;49.418;11.064;2023-11-18T09:26:48;5.20;99.90
14359;DHT22;7263;49.418;11.064;2023-11-18T09:29:24;5.20;99.90
14359;DHT22;7263;49.418;11.064;2023-11-18T09:31:54;5.30;99.90
14359;DHT22;7263;49.418;11.064;2023-11-18T09:34:23;5.40;99.90
14359;DHT22;7263;49.418;11.064;2023-11-18T09:36:58;5.50;99.90
14359;DHT22;7263;49.418;11.064;2023-11-18T09:39:27;5.50;99.90
14359;DHT22;7263;49.418;11.064;2023-11-18T09:42:12;5.50;99.90
14359;DHT22;7263;49.418;11.064;2023-11-18T09:44:44;5.50;99.90
14359;DHT22;7263;49.418;11.064;2023-11-18T09:47:15;5.50;99.90
14359;DHT22;7263;49.418;11.064;2023-11-18T09:49:54;5.50;99.90
14359;DHT22;7263;49.418;11.064;2023-11-18T09:52:29;5.60;99.90
14359;DHT22;7263;49.418;11.064;2023-11-18T09:55:03;5.70;99.90
14359;DHT22;7263;49.418;11.064;2023-11-18T09:57:36;5.80;99.90
14359;DHT22;7263;49.418;11.064;2023-11-18T10:00:11;6.10;99.90
14359;DHT22;7263;49.418;11.064;2023-11-18T10:02:52;6.20;99.90
14359;DHT22;7263;49.418;11.064;2023-11-18T10:05:21;6.30;99.90
14359;DHT22;7263;49.418;11.064;2023-11-18T10:07:59;6.50;99.90
14359;DHT22;7263;49.418;11.064;2023-11-18T10:10:27;6.60;99.90
14359;DHT22;7263;49.418;11.064;2023-11-18T10:13:08;6.60;99.90
14359;DHT22;7263;49.418;11.064;2023-11-18T10:15:47;6.60;99.90
14359;DHT22;7263;49.418;11.064;2023-11-18T10:18:30;6.70;99.90
14359;DHT22;7263;49.418;11.064;2023-11-18T10:21:08;6.70;99.90
14359;DHT22;7263;49.418;11.064;2023-11-18T10:23:59;6.80;99.90
14359;DHT22;7263;49.418;11.064;2023-11-18T10:26:27;6.90;99.90
14359;DHT22;7263;49.418;11.064;2023-11-18T10:29:06;6.90;99.90
14359;DHT22;7263;49.418;11.064;2023-11-18T10:31:36;6.90;99.90
14359;DHT22;7263;49.418;11.064;2023-11-18T10:34:13;6.90;99.90
14359;DHT22;7263;49.418;11.064;2023-11-18T10:36:42;6.90;99.90
14359;DHT22;7263;49.418;11.064;2023-11-18T10:39:28;6.90;99.90
14359;DHT22;7263;49.418;11.064;2023-11-18T10:41:59;7.00;99.90
14359;DHT22;7263;49.418;11.064;2023-11-18T10:44:30;7.10;99.90
14359;DHT22;7263;49.418;11.064;2023-11-18T10:47:00;7.20;99.90
14359;DHT22;7263;49.418;11.064;2023-11-18T10:49:31;7.50;99.90
14359;DHT22;7263;49.418;11.064;2023-11-18T10:52:02;8.00;99.90
14359;DHT22;7263;49.418;11.064;2023-11-18T10:54:33;8.30;99.90
14359;DHT22;7263;49.418;11.064;2023-11-18T10:57:09;8.40;99.90
14359;DHT22;7263;49.418;11.064;2023-11-18T10:59:58;8.50;99.90
14359;DHT22;7263;49.418;11.064;2023-11-18T11:02:33;8.70;99.90
14359;DHT22;7263;49.418;11.064;2023-11-18T11:05:08;8.90;99.90
14359;DHT22;7263;49.418;11.064;2023-11-18T11:07:42;9.20;99.90
14359;DHT22;7263;49.418;11.064;2023-11-18T11:10:14;9.20;99.90
14359;DHT22;7263;49.418;11.064;2023-11-18T11:12:46;9.50;99.90
14359;DHT22;7263;49.418;11.064;2023-11-18T11:15:22;10.00;99.90
14359;DHT22;7263;49.418;11.064;2023-11-18T11:18:04;10.40;99.90
14359;DHT22;7263;49.418;11.064;2023-11-18T11:20:41;10.80;99.90
14359;DHT22;7263;49.418;11.064;2023-11-18T11:23:21;11.30;99.90
14359;DHT22;7263;49.418;11.064;2023-11-18T11:26:02;11.10;99.90
14359;DHT22;7263;49.418;11.064;2023-11-18T11:28:43;11.40;99.90
14359;DHT22;7263;49.418;11.064;2023-11-18T11:31:23;11.70;99.90
14359;DHT22;7263;49.418;11.064;2023-11-18T11:34:02;11.80;99.90
14359;DHT22;7263;49.418;11.064;2023-11-18T11:36:43;11.90;99.90
14359;DHT22;7263;49.418;11.064;2023-11-18T11:39:13;11.60;99.90
14359;DHT22;7263;49.418;11.064;2023-11-18T11:41:44;11.30;99.90
14359;DHT22;7263;49.418;11.064;2023-11-18T11:44:14;10.90;99.90
14359;DHT22;7263;49.418;11.064;2023-11-18T11:46:42;10.60;99.90
14359;DHT22;7263;49.418;11.064;2023-11-18T11:49:11;10.10;99.90
14359;DHT22;7263;49.418;11.064;2023-11-18T11:51:48;9.90;99.90
14359;DHT22;7263;49.418;11.064;2023-11-18T11:54:23;9.70;99.90
14359;DHT22;7263;49.418;11.064;2023-11-18T11:56:56;9.50;99.90
14359;DHT22;7263;49.418;11.064;2023-11-18T11:59:56;9.50;99.90
14359;DHT22;7263;49.418;11.064;2023-11-18T12:02:27;9.60;99.90
14359;DHT22;7263;49.418;11.064;2023-11-18T12:04:56;9.70;99.90
14359;DHT22;7263;49.418;11.064;2023-11-18T12:07:25;9.80;99.90
14359;DHT22;7263;49.418;11.064;2023-11-18T12:10:00;9.60;99.90
14359;DHT22;7263;49.418;11.064;2023-11-18T12:12:37;9.50;99.90
14359;DHT22;7263;49.418;11.064;2023-11-18T12:15:17;9.50;99.90
14359;DHT22;7263;49.418;11.064;2023-11-18T12:18:13;9.50;99.90
14359;DHT22;7263;49.418;11.064;2023-11-18T12:20:43;9.40;99.90
14359;DHT22;7263;49.418;11.064;2023-11-18T12:23:13;9.40;99.90
14359;DHT22;7263;49.418;11.064;2023-11-18T12:25:44;9.40;99.90
14359;DHT22;7263;49.418;11.064;2023-11-18T12:28:14;9.30;99.90
14359;DHT22;7263;49.418;11.064;2023-11-18T12:30:43;9.30;99.90
14359;DHT22;7263;49.418;11.064;2023-11-18T12:33:23;9.20;99.90
14359;DHT22;7263;49.418;11.064;2023-11-18T12:42:49;9.10;99.90
14359;DHT22;7263;49.418;11.064;2023-11-18T12:46:17;9.00;99.90
14359;DHT22;7263;49.418;11.064;2023-11-18T12:48:53;8.90;99.90
14359;DHT22;7263;49.418;11.064;2023-11-18T12:51:25;8.90;99.90
14359;DHT22;7263;49.418;11.064;2023-11-18T12:53:55;9.00;99.90
14359;DHT22;7263;49.418;11.064;2023-11-18T12:56:22;9.00;99.90
14359;DHT22;7263;49.418;11.064;2023-11-18T12:58:53;9.00;99.90
14359;DHT22;7263;49.418;11.064;2023-11-18T13:01:26;9.00;99.90
14359;DHT22;7263;49.418;11.064;2023-11-18T13:03:57;8.90;99.90
14359;DHT22;7263;49.418;11.064;2023-11-18T13:06:39;8.80;99.90
14359;DHT22;7263;49.418;11.064;2023-11-18T13:09:08;8.80;99.90
14359;DHT22;7263;49.418;11.064;2023-11-18T13:11:52;8.70;99.90
14359;DHT22;7263;49.418;11.064;2023-11-18T13:14:25;8.70;99.90
14359;DHT22;7263;49.418;11.064;2023-11-18T13:16:55;8.70;99.90
14359;DHT22;7263;49.418;11.064;2023-11-18T13:19:28;8.70;99.90
14359;DHT22;7263;49.418;11.064;2023-11-18T13:21:58;8.70;99.90
14359;DHT22;7263;49.418;11.064;2023-11-18T13:24:32;8.60;99.90
14359;DHT22;7263;49.418;11.064;2023-11-18T13:27:05;8.50;99.90
14359;DHT22;7263;49.418;11.064;2023-11-18T13:29:34;8.40;99.90
14359;DHT22;7263;49.418;11.064;2023-11-18T13:32:05;8.30;99.90
14359;DHT22;7263;49.418;11.064;2023-11-18T13:34:39;8.30;99.90
14359;DHT22;7263;49.418;11.064;2023-11-18T13:37:07;8.20;99.90
14359;DHT22;7263;49.418;11.064;2023-11-18T13:39:38;8.20;99.90
14359;DHT22;7263;49.418;11.064;2023-11-18T13:42:20;8.20;99.90
14359;DHT22;7263;49.418;11.064;2023-11-18T13:44:53;8.20;99.90
14359;DHT22;7263;49.418;11.064;2023-11-18T13:47:28;8.20;99.90
14359;DHT22;7263;49.418;11.064;2023-11-18T13:49:58;8.10;99.90
14359;DHT22;7263;49.418;11.064;2023-11-18T13:52:31;8.10;99.90
14359;DHT22;7263;49.418;11.064;2023-11-18T13:54:58;8.00;99.90
14359;DHT22;7263;49.418;11.064;2023-11-18T13:57:25;8.00;99.90
14359;DHT22;7263;49.418;11.064;2023-11-18T13:59:56;8.00;99.90
14359;DHT22;7263;49.418;11.064;2023-11-18T14:02:24;7.90;99.90
14359;DHT22;7263;49.418;11.064;2023-11-18T14:05:01;7.80;99.90
14359;DHT22;7263;49.418;11.064;2023-11-18T14:07:40;7.80;99.90
14359;DHT22;7263;49.418;11.064;2023-11-18T14:10:10;7.70;99.90
14359;DHT22;7263;49.418;11.064;2023-11-18T14:12:40;7.70;99.90
14359;DHT22;7263;49.418;11.064;2023-11-18T14:15:28;7.60;99.90
14359;DHT22;7263;49.418;11.064;2023-11-18T14:18:04;7.60;99.90
14359;DHT22;7263;49.418;11.064;2023-11-18T14:20:33;7.50;99.90
14359;DHT22;7263;49.418;11.064;2023-11-18T14:23:08;7.50;99.90
14359;DHT22;7263;49.418;11.064;2023-11-18T14:25:35;7.50;99.90
14359;DHT22;7263;49.418;11.064;2023-11-18T14:28:04;7.40;99.90
14359;DHT22;7263;49.418;11.064;2023-11-18T14:30:34;7.40;99.90
14359;DHT22;7263;49.418;11.064;2023-11-18T14:33:18;7.30;99.90
14359;DHT22;7263;49.418;11.064;2023-11-18T14:35:47;7.40;99.90
14359;DHT22;7263;49.418;11.064;2023-11-18T14:38:15;7.30;99.90
14359;DHT22;7263;49.418;11.064;2023-11-18T14:40:49;7.20;99.90
14359;DHT22;7263;49.418;11.064;2023-11-18T14:43:24;7.20;99.90
14359;DHT22;7263;49.418;11.064;2023-11-18T14:45:54;7.20;99.90
14359;DHT22;7263;49.418;11.064;2023-11-18T14:48:20;7.20;99.90
14359;DHT22;7263;49.418;11.064;2023-11-18T14:50:47;7.10;99.90
14359;DHT22;7263;49.418;11.064;2023-11-18T14:53:15;7.10;99.90
14359;DHT22;7263;49.418;11.064;2023-11-18T14:55:58;7.10;99.90
14359;DHT22;7263;49.418;11.064;2023-11-18T14:58:28;7.10;99.90
14359;DHT22;7263;49.418;11.064;2023-11-18T15:00:58;7.00;99.90
14359;DHT22;7263;49.418;11.064;2023-11-18T15:03:34;7.00;99.90
14359;DHT22;7263;49.418;11.064;2023-11-18T15:06:04;7.00;99.90
14359;DHT22;7263;49.418;11.064;2023-11-18T15:08:45;6.90;99.90
14359;DHT22;7263;49.418;11.064;2023-11-18T15:11:12;6.90;99.90
14359;DHT22;7263;49.418;11.064;2023-11-18T15:13:42;6.80;99.90
14359;DHT22;7263;49.418;11.064;2023-11-18T15:16:09;6.80;99.90
14359;DHT22;7263;49.418;11.064;2023-11-18T15:18:38;6.80;99.90
14359;DHT22;7263;49.418;11.064;2023-11-18T15:21:12;6.70;99.90
14359;DHT22;7263;49.418;11.064;2023-11-18T15:23:42;6.70;99.90
14359;DHT22;7263;49.418;11.064;2023-11-18T15:26:11;6.70;99.90
14359;DHT22;7263;49.418;11.064;2023-11-18T15:28:38;6.60;99.90
14359;DHT22;7263;49.418;11.064;2023-11-18T15:31:05;6.60;99.90
14359;DHT22;7263;49.418;11.064;2023-11-18T15:33:33;6.60;99.90
14359;DHT22;7263;49.418;11.064;2023-11-18T15:36:01;6.60;99.90
14359;DHT22;7263;49.418;11.064;2023-11-18T15:38:38;6.50;99.90
14359;DHT22;7263;49.418;11.064;2023-11-18T15:41:17;6.50;99.90
14359;DHT22;7263;49.418;11.064;2023-11-18T15:43:51;6.50;99.90
14359;DHT22;7263;49.418;11.064;2023-11-18T15:46:27;6.50;99.90
14359;DHT22;7263;49.418;11.064;2023-11-18T15:48:53;6.50;99.90
14359;DHT22;7263;49.418;11.064;2023-11-18T15:51:31;6.50;99.90
14359;DHT22;7263;49.418;11.064;2023-11-18T15:54:00;6.50;99.90
14359;DHT22;7263;49.418;11.064;2023-11-18T15:56:53;6.50;99.90
14359;DHT22;7263;49.418;11.064;2023-11-18T15:59:19;6.50;99.90
14359;DHT22;7263;49.418;11.064;2023-11-18T16:01:59;6.50;99.90
14359;DHT22;7263;49.418;11.064;2023-11-18T16:04:36;6.50;99.90
14359;DHT22;7263;49.418;11.064;2023-11-18T16:07:03;6.50;99.90
14359;DHT22;7263;49.418;11.064;2023-11-18T16:09:30;6.50;99.90
14359;DHT22;7263;49.418;11.064;2023-11-18T16:12:01;6.50;99.90
14359;DHT22;7263;49.418;11.064;2023-11-18T16:14:33;6.50;99.90
14359;DHT22;7263;49.418;11.064;2023-11-18T16:17:01;6.50;99.90
14359;DHT22;7263;49.418;11.064;2023-11-18T16:19:32;6.50;99.90
14359;DHT22;7263;49.418;11.064;2023-11-18T16:22:08;6.60;99.90
14359;DHT22;7263;49.418;11.064;2023-11-18T16:24:56;6.50;99.90